Time;durP1;ratioP1;P1;durP2;ratioP2;P2;SDS_P1;SDS_P2;PMS_P1;PMS_P2;Temp;Humidity;BMP_temperature;BMP_pressure;BME280_temperature;BME280_humidity;BME280_pressure;Samples;Min_cycle;Max_cycle;Signal;HPM_P1;HPM_P2
2021/11/14 00:04:31;;;;;;;;;;;;;;;;;;;;;
2021/11/14 00:23:37;;;;;;;;;0.00;0.00;;;;;;;;4713626;30;8869;-80
2021/11/14 00:29:11;;;;;;;;;0.00;0.00;;;;;;;;4713395;30;9034;-82
2021/11/14 00:31:37;;;;;;;;;0.00;0.00;;;;;;;;4726381;30;8848;-82
2021/11/14 00:34:05;;;;;;;;;0.00;0.00;;;;;;;;4835912;28;8814;-82
2021/11/14 00:36:32;;;;;;;;;0.00;0.00;;;;;;;;4994043;28;8911;-79
2021/11/14 00:38:57;;;;;;;;;0.00;0.00;;;;;;;;4975561;28;8892;-79
2021/11/14 00:41:24;;;;;;;;;0.00;0.00;;;;;;;;4994179;28;8826;-79
2021/11/14 00:43:50;;;;;;;;;0.00;0.00;;;;;;;;4993531;28;8734;-79
2021/11/14 00:46:15;;;;;;;;;0.00;0.00;;;;;;;;4996941;28;9628;-80
2021/11/14 00:48:42;;;;;;;;;0.00;0.00;;;;;;;;4997267;28;8830;-80
2021/11/14 00:51:08;;;;;;;;;0.00;0.00;;;;;;;;4994952;28;8924;-79
2021/11/14 00:53:33;;;;;;;;;0.00;0.00;;;;;;;;4987258;28;8974;-79
2021/11/14 00:55:59;;;;;;;;;0.00;0.00;;;;;;;;4976347;28;8845;-79
2021/11/14 00:58:25;;;;;;;;;0.00;0.00;;;;;;;;4997331;28;8810;-80
2021/11/14 01:00:51;;;;;;;;;0.00;0.00;;;;;;;;4978965;28;8802;-80
2021/11/14 01:03:17;;;;;;;;;0.00;0.00;;;;;;;;4979642;28;8822;-80
2021/11/14 01:05:42;;;;;;;;;0.00;0.00;;;;;;;;4978805;28;8869;-80
2021/11/14 01:08:08;;;;;;;;;0.00;0.00;;;;;;;;4997210;28;8924;-80
2021/11/14 01:10:36;;;;;;;;;0.00;0.00;;;;;;;;4979151;28;8826;-80
2021/11/14 01:13:01;;;;;;;;;0.00;0.00;;;;;;;;4979191;28;8936;-80
2021/11/14 01:15:27;;;;;;;;;0.00;0.00;;;;;;;;4979103;28;8936;-80
2021/11/14 01:17:54;;;;;;;;;0.00;0.00;;;;;;;;4978721;28;8895;-80
2021/11/14 01:20:25;;;;;;;;;0.00;0.00;;;;;;;;4978903;28;8825;-80
2021/11/14 01:22:51;;;;;;;;;0.00;0.00;;;;;;;;4996876;28;8802;-80
2021/11/14 01:25:17;;;;;;;;;0.00;0.00;;;;;;;;4995595;28;8814;-80
2021/11/14 01:27:43;;;;;;;;;0.00;0.00;;;;;;;;4996617;28;8806;-80
2021/11/14 01:30:11;;;;;;;;;0.00;0.00;;;;;;;;4996624;28;8794;-79
2021/11/14 01:32:39;;;;;;;;;0.00;0.00;;;;;;;;4973428;28;9287;-79
2021/11/14 01:35:05;;;;;;;;;0.00;0.00;;;;;;;;4988961;28;8847;-80
2021/11/14 01:37:31;;;;;;;;;0.00;0.00;;;;;;;;4996457;28;8775;-79
2021/11/14 01:39:56;;;;;;;;;0.00;0.00;;;;;;;;4968736;28;8934;-80
2021/11/14 01:42:21;;;;;;;;;0.00;0.00;;;;;;;;4977881;28;8902;-80
2021/11/14 01:44:47;;;;;;;;;0.00;0.00;;;;;;;;4978303;28;9109;-80
2021/11/14 01:47:15;;;;;;;;;0.00;0.00;;;;;;;;4996005;28;8838;-80
2021/11/14 01:49:40;;;;;;;;;0.00;0.00;;;;;;;;4978616;28;8810;-80
2021/11/14 01:52:16;;;;;;;;;0.00;0.00;;;;;;;;4991318;28;8828;-80
2021/11/14 01:54:41;;;;;;;;;0.00;0.00;;;;;;;;4990628;28;9522;-80
2021/11/14 01:57:07;;;;;;;;;0.00;0.00;;;;;;;;4978907;28;8818;-80
2021/11/14 01:59:35;;;;;;;;;0.00;0.00;;;;;;;;4996501;28;8951;-80
2021/11/14 02:02:00;;;;;;;;;0.00;0.00;;;;;;;;4978362;28;8766;-80
2021/11/14 02:04:25;;;;;;;;;0.00;0.00;;;;;;;;4996251;28;8877;-80
2021/11/14 02:06:51;;;;;;;;;0.00;0.00;;;;;;;;4995965;28;8794;-79
2021/11/14 02:09:16;;;;;;;;;0.00;0.00;;;;;;;;4996086;28;8908;-80
2021/11/14 02:11:42;;;;;;;;;0.00;0.00;;;;;;;;4996005;28;8802;-80
2021/11/14 02:14:07;;;;;;;;;0.00;0.00;;;;;;;;4996145;28;8885;-80
2021/11/14 02:16:33;;;;;;;;;0.00;0.00;;;;;;;;4978380;28;8833;-80
2021/11/14 02:18:58;;;;;;;;;0.00;0.00;;;;;;;;4965967;28;8804;-80
2021/11/14 02:21:24;;;;;;;;;0.00;0.00;;;;;;;;4978481;28;8834;-80
2021/11/14 02:23:51;;;;;;;;;0.00;0.00;;;;;;;;4995735;28;8786;-80
2021/11/14 02:26:19;;;;;;;;;0.00;0.00;;;;;;;;4996120;28;8790;-80
2021/11/14 02:28:47;;;;;;;;;0.00;0.00;;;;;;;;4995673;28;8782;-80
2021/11/14 02:31:12;;;;;;;;;0.00;0.00;;;;;;;;4978077;28;8806;-80
2021/11/14 02:33:38;;;;;;;;;0.00;0.00;;;;;;;;4982702;28;8808;-80
2021/11/14 02:36:05;;;;;;;;;0.00;0.00;;;;;;;;4995470;28;8913;-80
2021/11/14 02:38:31;;;;;;;;;0.00;0.00;;;;;;;;4995818;28;8755;-80
2021/11/14 02:40:57;;;;;;;;;0.00;0.00;;;;;;;;4967153;28;9696;-80
2021/11/14 02:43:23;;;;;;;;;0.00;0.00;;;;;;;;4992923;28;8810;-80
2021/11/14 02:45:49;;;;;;;;;0.00;0.00;;;;;;;;4995138;28;8895;-79
2021/11/14 02:48:15;;;;;;;;;0.00;0.00;;;;;;;;4995626;28;8813;-80
2021/11/14 02:50:42;;;;;;;;;0.00;0.00;;;;;;;;4995390;28;8884;-81
2021/11/14 02:53:08;;;;;;;;;0.00;0.00;;;;;;;;4998605;28;9130;-80
2021/11/14 02:55:34;;;;;;;;;0.00;0.00;;;;;;;;4995484;28;8806;-80
2021/11/14 02:57:59;;;;;;;;;0.00;0.00;;;;;;;;4994708;28;8825;-80
2021/11/14 03:00:28;;;;;;;;;0.00;0.00;;;;;;;;4995449;28;8929;-81
2021/11/14 03:02:54;;;;;;;;;0.00;0.00;;;;;;;;4977008;28;8850;-80
2021/11/14 03:05:20;;;;;;;;;0.00;0.00;;;;;;;;4993875;28;9689;-80
2021/11/14 03:07:47;;;;;;;;;0.00;0.00;;;;;;;;4994852;28;8849;-80
2021/11/14 03:10:15;;;;;;;;;0.00;0.00;;;;;;;;4994962;28;8806;-80
2021/11/14 03:12:40;;;;;;;;;0.00;0.00;;;;;;;;4994798;28;8791;-81
2021/11/14 03:15:06;;;;;;;;;0.00;0.00;;;;;;;;4977202;28;8944;-80
2021/11/14 03:17:32;;;;;;;;;0.00;0.00;;;;;;;;4994714;28;8992;-81
2021/11/14 03:19:58;;;;;;;;;0.00;0.00;;;;;;;;4976918;28;8866;-81
2021/11/14 03:22:23;;;;;;;;;0.00;0.00;;;;;;;;4994927;28;8814;-81
2021/11/14 03:24:49;;;;;;;;;0.00;0.00;;;;;;;;4993901;28;9635;-80
2021/11/14 03:27:14;;;;;;;;;0.00;0.00;;;;;;;;4994820;28;9416;-81
2021/11/14 03:29:40;;;;;;;;;0.00;0.00;;;;;;;;4994956;28;8830;-81
2021/11/14 03:32:05;;;;;;;;;0.00;0.00;;;;;;;;4975355;28;8853;-81
2021/11/14 03:34:31;;;;;;;;;0.00;0.00;;;;;;;;4983302;28;8838;-81
2021/11/14 03:37:09;;;;;;;;;0.00;0.00;;;;;;;;4976742;28;8947;-81
2021/11/14 03:39:34;;;;;;;;;0.00;0.00;;;;;;;;4977276;28;9013;-81
2021/11/14 03:42:00;;;;;;;;;0.00;0.00;;;;;;;;4976510;28;8976;-80
2021/11/14 03:44:34;;;;;;;;;0.00;0.00;;;;;;;;4974201;28;8876;-81
2021/11/14 03:46:59;;;;;;;;;0.00;0.00;;;;;;;;4994189;28;8783;-81
2021/11/14 03:49:29;;;;;;;;;0.00;0.00;;;;;;;;4994780;28;8830;-80
2021/11/14 03:51:55;;;;;;;;;0.00;0.00;;;;;;;;4980973;28;9726;-80
2021/11/14 03:54:21;;;;;;;;;0.00;0.00;;;;;;;;4977078;28;9161;-80
2021/11/14 03:56:47;;;;;;;;;0.00;0.00;;;;;;;;4976681;28;8810;-80
2021/11/14 03:59:12;;;;;;;;;0.00;0.00;;;;;;;;4976761;28;8830;-80
2021/11/14 04:01:37;;;;;;;;;0.00;0.00;;;;;;;;4994307;28;8806;-79
2021/11/14 04:04:03;;;;;;;;;0.00;0.00;;;;;;;;4994187;28;8910;-79
2021/11/14 04:06:29;;;;;;;;;0.00;0.00;;;;;;;;4976783;28;8838;-79
2021/11/14 04:08:56;;;;;;;;;0.00;0.00;;;;;;;;4994252;28;8802;-80
2021/11/14 04:11:22;;;;;;;;;0.00;0.00;;;;;;;;4976669;28;8885;-80
2021/11/14 04:13:48;;;;;;;;;0.00;0.00;;;;;;;;4994144;28;8791;-79
2021/11/14 04:16:13;;;;;;;;;0.00;0.00;;;;;;;;4995108;28;8908;-79
2021/11/14 04:18:39;;;;;;;;;0.00;0.00;;;;;;;;4973231;28;8821;-79
2021/11/14 04:21:06;;;;;;;;;0.00;0.00;;;;;;;;4997236;28;8794;-79
2021/11/14 04:23:31;;;;;;;;;0.00;0.00;;;;;;;;4997678;28;8774;-79
2021/11/14 04:25:57;;;;;;;;;0.00;0.00;;;;;;;;4997264;28;9499;-79
2021/11/14 04:28:22;;;;;;;;;0.00;0.00;;;;;;;;4979922;28;8826;-80
2021/11/14 04:30:49;;;;;;;;;0.00;0.00;;;;;;;;4979309;28;8836;-79
2021/11/14 04:33:15;;;;;;;;;0.00;0.00;;;;;;;;4969293;28;8862;-79
2021/11/14 04:35:41;;;;;;;;;0.00;0.00;;;;;;;;4994906;28;8915;-79
2021/11/14 04:38:16;;;;;;;;;;;;;;;;;;;;;
2021/11/14 04:40:43;;;;;;;;;0.00;0.00;;;;;;;;4995778;28;36158;-80
2021/11/14 04:43:18;;;;;;;;;0.00;0.00;;;;;;;;4997438;28;8864;-80
2021/11/14 04:45:47;;;;;;;;;0.00;0.00;;;;;;;;4983988;28;8847;-80
2021/11/14 04:48:28;;;;;;;;;;;;;;;;;;;;;
2021/11/14 04:50:56;;;;;;;;;0.00;0.00;;;;;;;;4996617;28;34979;-80
2021/11/14 04:53:22;;;;;;;;;0.00;0.00;;;;;;;;4982864;28;8794;-80
2021/11/14 04:55:50;;;;;;;;;0.00;0.00;;;;;;;;4979297;28;8843;-80
2021/11/14 04:58:18;;;;;;;;;0.00;0.00;;;;;;;;4997112;28;8816;-80
2021/11/14 05:00:49;;;;;;;;;0.00;0.00;;;;;;;;4979024;28;8912;-78
2021/11/14 05:03:15;;;;;;;;;0.00;0.00;;;;;;;;4997008;28;8794;-79
2021/11/14 05:05:41;;;;;;;;;0.00;0.00;;;;;;;;4996861;28;9824;-79
2021/11/14 05:08:16;;;;;;;;;0.00;0.00;;;;;;;;4997091;28;8824;-79
2021/11/14 05:10:43;;;;;;;;;0.00;0.00;;;;;;;;4996744;28;8825;-79
2021/11/14 05:13:09;;;;;;;;;0.00;0.00;;;;;;;;4979184;28;8798;-79
2021/11/14 05:15:34;;;;;;;;;0.00;0.00;;;;;;;;4979169;28;8949;-79
2021/11/14 05:18:03;;;;;;;;;0.00;0.00;;;;;;;;4978725;28;8834;-79
2021/11/14 05:20:37;;;;;;;;;0.00;0.00;;;;;;;;4980029;28;8814;-79
2021/11/14 05:23:17;;;;;;;;;0.00;0.00;;;;;;;;4966985;28;8843;-80
2021/11/14 05:25:43;;;;;;;;;0.00;0.00;;;;;;;;4977414;28;8837;-79
2021/11/14 05:28:09;;;;;;;;;0.00;0.00;;;;;;;;4978080;28;8837;-79
2021/11/14 05:30:42;;;;;;;;;0.00;0.00;;;;;;;;4996451;28;8936;-79
2021/11/14 05:33:10;;;;;;;;;0.00;0.00;;;;;;;;4969470;28;8949;-79
2021/11/14 05:35:45;;;;;;;;;0.00;0.00;;;;;;;;4975783;28;9523;-79
2021/11/14 05:38:13;;;;;;;;;0.00;0.00;;;;;;;;4978999;28;8818;-79
2021/11/14 05:40:42;;;;;;;;;0.00;0.00;;;;;;;;4985807;28;8798;-80
2021/11/14 05:43:16;;;;;;;;;0.00;0.00;;;;;;;;4996573;28;8845;-80
2021/11/14 05:45:51;;;;;;;;;0.00;0.00;;;;;;;;4983444;28;8852;-80
2021/11/14 05:48:19;;;;;;;;;0.00;0.00;;;;;;;;4996550;28;8908;-79
2021/11/14 05:50:47;;;;;;;;;0.00;0.00;;;;;;;;4996214;28;8814;-79
2021/11/14 05:53:13;;;;;;;;;0.00;0.00;;;;;;;;4982098;28;8910;-80
2021/11/14 05:55:48;;;;;;;;;0.00;0.00;;;;;;;;4978674;28;8829;-79
2021/11/14 05:58:20;;;;;;;;;0.00;0.00;;;;;;;;4996403;28;9638;-81
2021/11/14 06:06:18;;;;;;;;;0.00;0.00;;;;;;;;4996158;28;8924;-79
2021/11/14 06:08:44;;;;;;;;;0.00;0.00;;;;;;;;4978098;28;8807;-79
2021/11/14 06:11:17;;;;;;;;;0.00;0.00;;;;;;;;4978442;28;8858;-80
2021/11/14 06:13:53;;;;;;;;;;;;;;;;;;;;;
2021/11/14 06:16:19;;;;;;;;;0.00;0.00;;;;;;;;4982212;28;36323;-80
2021/11/14 06:18:56;;;;;;;;;0.00;0.00;;;;;;;;4989505;28;8794;-79
2021/11/14 06:21:22;;;;;;;;;0.00;0.00;;;;;;;;4967143;28;9768;-79
2021/11/14 06:23:57;;;;;;;;;0.00;0.00;;;;;;;;4995738;28;8801;-79
2021/11/14 06:26:30;;;;;;;;;0.00;0.00;;;;;;;;4978247;28;9049;-80
2021/11/14 06:29:05;;;;;;;;;;;;;;;;;;;;;
2021/11/14 06:31:31;;;;;;;;;0.00;0.00;;;;;;;;4994862;28;36001;-79
2021/11/14 06:33:56;;;;;;;;;0.00;0.00;;;;;;;;4964842;28;8852;-79
2021/11/14 06:36:32;;;;;;;;;0.00;0.00;;;;;;;;4995735;28;8849;-79
2021/11/14 06:38:58;;;;;;;;;0.00;0.00;;;;;;;;4975150;28;8830;-79
2021/11/14 06:41:23;;;;;;;;;0.00;0.00;;;;;;;;4968495;28;8954;-79
2021/11/14 06:43:49;;;;;;;;;0.00;0.00;;;;;;;;4993198;28;8901;-79
2021/11/14 06:46:15;;;;;;;;;0.00;0.00;;;;;;;;4995358;28;8819;-79
2021/11/14 06:48:41;;;;;;;;;0.00;0.00;;;;;;;;4977766;28;8799;-79
2021/11/14 06:51:06;;;;;;;;;0.00;0.00;;;;;;;;4997455;28;8853;-79
2021/11/14 06:53:32;;;;;;;;;0.00;0.00;;;;;;;;4994073;28;8850;-79
2021/11/14 06:55:57;;;;;;;;;0.00;0.00;;;;;;;;4995206;28;8842;-80
2021/11/14 06:58:22;;;;;;;;;0.00;0.00;;;;;;;;4995341;28;8804;-79
2021/11/14 07:00:48;;;;;;;;;0.00;0.00;;;;;;;;4977320;28;8811;-80
2021/11/14 07:03:14;;;;;;;;;0.00;0.00;;;;;;;;4995043;28;8807;-78
2021/11/14 07:05:58;;;;;;;;;0.00;0.00;;;;;;;;4995277;28;8756;-79
2021/11/14 07:08:23;;;;;;;;;0.00;0.00;;;;;;;;4964821;28;8882;-79
2021/11/14 07:10:48;;;;;;;;;0.00;0.00;;;;;;;;4977348;28;8823;-79
2021/11/14 07:13:16;;;;;;;;;0.00;0.00;;;;;;;;4995134;28;8811;-79
2021/11/14 07:15:41;;;;;;;;;0.00;0.00;;;;;;;;4976374;28;8776;-78
2021/11/14 07:18:07;;;;;;;;;0.00;0.00;;;;;;;;4993841;28;9692;-79
2021/11/14 07:20:33;;;;;;;;;0.00;0.00;;;;;;;;4994656;28;8885;-79
2021/11/14 07:22:58;;;;;;;;;0.00;0.00;;;;;;;;4976503;28;8827;-80
2021/11/14 07:25:24;;;;;;;;;0.00;0.00;;;;;;;;4993917;28;8831;-79
2021/11/14 07:27:50;;;;;;;;;0.00;0.00;;;;;;;;4977228;28;8941;-79
2021/11/14 07:30:25;;;;;;;;;0.00;0.00;;;;;;;;4976731;28;8893;-79
2021/11/14 07:32:51;;;;;;;;;0.00;0.00;;;;;;;;4976456;28;8802;-80
2021/11/14 07:35:18;;;;;;;;;0.00;0.00;;;;;;;;4976662;28;8815;-79
2021/11/14 07:37:43;;;;;;;;;0.00;0.00;;;;;;;;4994555;28;8800;-79
2021/11/14 07:40:09;;;;;;;;;0.00;0.00;;;;;;;;4994625;28;8857;-79
2021/11/14 07:42:37;;;;;;;;;0.00;0.00;;;;;;;;4973202;28;8950;-79
2021/11/14 07:45:03;;;;;;;;;0.00;0.00;;;;;;;;4973683;28;8851;-79
2021/11/14 07:47:28;;;;;;;;;0.00;0.00;;;;;;;;4975278;28;8807;-79
2021/11/14 07:49:54;;;;;;;;;0.00;0.00;;;;;;;;4956255;28;8838;-79
2021/11/14 07:52:20;;;;;;;;;0.00;0.00;;;;;;;;4981226;28;8883;-78
2021/11/14 07:54:46;;;;;;;;;0.00;0.00;;;;;;;;4975171;28;8847;-78
2021/11/14 07:57:11;;;;;;;;;0.00;0.00;;;;;;;;4956314;28;8861;-78
2021/11/14 07:59:36;;;;;;;;;0.00;0.00;;;;;;;;4975048;28;8831;-78
2021/11/14 08:02:02;;;;;;;;;0.00;0.00;;;;;;;;4973587;28;8862;-79
2021/11/14 08:04:29;;;;;;;;;0.00;0.00;;;;;;;;4974712;28;8862;-79
2021/11/14 08:06:56;;;;;;;;;0.00;0.00;;;;;;;;4976555;28;9864;-78
2021/11/14 08:09:21;;;;;;;;;0.00;0.00;;;;;;;;4974902;28;8826;-79
2021/11/14 08:11:47;;;;;;;;;0.00;0.00;;;;;;;;4957057;28;8850;-78
2021/11/14 08:14:14;;;;;;;;;0.00;0.00;;;;;;;;4974798;28;8877;-79
2021/11/14 08:16:45;;;;;;;;;0.00;0.00;;;;;;;;4956416;28;8846;-80
2021/11/14 08:19:15;;;;;;;;;0.00;0.00;;;;;;;;4958109;28;8977;-80
2021/11/14 08:21:52;;;;;;;;;0.00;0.00;;;;;;;;4956618;28;8839;-79
2021/11/14 08:24:18;;;;;;;;;0.00;0.00;;;;;;;;4967775;28;8807;-79
2021/11/14 08:26:43;;;;;;;;;0.00;0.00;;;;;;;;4955665;28;8815;-79
2021/11/14 08:32:37;;;;;;;;;0.00;0.00;;;;;;;;4891575;29;8833;-81
2021/11/14 08:35:03;;;;;;;;;0.00;0.00;;;;;;;;4895177;29;8794;-80
2021/11/14 08:37:32;;;;;;;;;0.00;0.00;;;;;;;;4953943;28;8925;-79
2021/11/14 08:39:57;;;;;;;;;0.00;0.00;;;;;;;;4981247;28;8889;-79
2021/11/14 08:42:23;;;;;;;;;0.00;0.00;;;;;;;;4973051;28;9573;-79
2021/11/14 08:44:54;;;;;;;;;0.00;0.00;;;;;;;;4981420;28;10230;-81
2021/11/14 08:47:20;;;;;;;;;0.00;0.00;;;;;;;;4975879;28;8874;-79
2021/11/14 08:49:45;;;;;;;;;0.00;0.00;;;;;;;;4993465;28;8800;-80
2021/11/14 08:52:11;;;;;;;;;0.00;0.00;;;;;;;;4976012;28;8830;-79
2021/11/14 08:54:36;;;;;;;;;0.00;0.00;;;;;;;;4975855;28;8828;-79
2021/11/14 08:57:02;;;;;;;;;0.00;0.00;;;;;;;;4993485;28;8856;-80
2021/11/14 08:59:31;;;;;;;;;0.00;0.00;;;;;;;;4975926;28;10102;-79
2021/11/14 09:02:05;;;;;;;;;0.00;0.00;;;;;;;;4994123;28;8914;-79
2021/11/14 09:04:31;;;;;;;;;0.00;0.00;;;;;;;;4996184;28;8836;-78
2021/11/14 09:07:20;;;;;;;;;0.00;0.00;;;;;;;;4996801;28;8828;-80
2021/11/14 09:09:45;;;;;;;;;0.00;0.00;;;;;;;;4985805;28;8873;-79
2021/11/14 09:12:10;;;;;;;;;0.00;0.00;;;;;;;;4976529;28;8840;-78
2021/11/14 09:14:36;;;;;;;;;0.00;0.00;;;;;;;;4997248;28;8852;-79
2021/11/14 09:17:01;;;;;;;;;0.00;0.00;;;;;;;;4978245;28;9644;-78
2021/11/14 09:19:26;;;;;;;;;0.00;0.00;;;;;;;;4998226;28;8936;-78
2021/11/14 09:21:52;;;;;;;;;0.00;0.00;;;;;;;;4998423;28;8892;-78
2021/11/14 09:24:18;;;;;;;;;0.00;0.00;;;;;;;;4996445;28;8813;-79
2021/11/14 09:26:43;;;;;;;;;0.00;0.00;;;;;;;;4996328;28;8816;-78
2021/11/14 09:29:09;;;;;;;;;0.00;0.00;;;;;;;;4996711;28;8816;-78
2021/11/14 09:31:35;;;;;;;;;0.00;0.00;;;;;;;;4996262;28;8812;-78
2021/11/14 09:34:01;;;;;;;;;0.00;0.00;;;;;;;;4995823;28;8874;-78
2021/11/14 09:36:34;;;;;;;;;0.00;0.00;;;;;;;;4996449;28;8820;-79
2021/11/14 09:39:01;;;;;;;;;0.00;0.00;;;;;;;;4995883;28;8808;-78
2021/11/14 09:41:26;;;;;;;;;0.00;0.00;;;;;;;;4995669;28;9638;-78
2021/11/14 09:43:52;;;;;;;;;0.00;0.00;;;;;;;;4996167;28;8892;-79
2021/11/14 09:46:18;;;;;;;;;0.00;0.00;;;;;;;;4996027;28;8813;-79
2021/11/14 09:48:46;;;;;;;;;0.00;0.00;;;;;;;;4983426;28;8802;-80
2021/11/14 09:51:15;;;;;;;;;0.00;0.00;;;;;;;;4978400;28;8829;-80
2021/11/14 09:53:41;;;;;;;;;0.00;0.00;;;;;;;;4986296;28;8818;-80
2021/11/14 09:56:07;;;;;;;;;0.00;0.00;;;;;;;;4995024;28;8852;-80
2021/11/14 09:58:43;;;;;;;;;0.00;0.00;;;;;;;;4995965;28;8825;-82
2021/11/14 10:01:11;;;;;;;;;0.00;0.00;;;;;;;;4994429;28;8790;-81
2021/11/14 10:04:00;;;;;;;;;0.00;0.00;;;;;;;;4996280;28;8802;-80
2021/11/14 10:16:07;;;;;;;;;;;;;;;;;;;;;
2021/11/14 10:31:24;;;;;;;;;0.00;0.00;;;;;;;;4804738;29;8738;-78
2021/11/14 10:37:44;;;;;;;;;0.00;0.00;;;;;;;;4729805;30;8934;-83
2021/11/14 10:40:20;;;;;;;;;0.00;0.00;;;;;;;;4739568;29;8920;-79
2021/11/14 11:13:04;;;;;;;;;0.00;0.00;;;;;;;;5193216;23;8866;-81
2021/11/14 11:19:16;;;;;;;;;;;;;;;;;;;;;
2021/11/14 12:08:41;;;;;;;;;;;;;;;;;;;;;
2021/11/14 12:30:42;;;;;;;;;0.00;0.00;;;;;;;;4652238;30;8822;-82
2021/11/14 12:52:02;;;;;;;;;0.00;0.00;;;;;;;;4752405;30;9712;-82
2021/11/14 12:54:28;;;;;;;;;0.00;0.00;;;;;;;;4759664;30;8810;-83
2021/11/14 12:57:17;;;;;;;;;0.00;0.00;;;;;;;;4812577;29;9831;-83
2021/11/14 13:06:19;;;;;;;;;0.00;0.00;;;;;;;;4857722;29;8833;-84
2021/11/14 13:55:30;;;;;;;;;0.00;0.00;;;;;;;;4921117;28;8814;-80
2021/11/14 13:57:55;;;;;;;;;0.00;0.00;;;;;;;;4996228;28;8779;-77
2021/11/14 14:00:26;;;;;;;;;0.00;0.00;;;;;;;;5016167;28;9664;-80
2021/11/14 14:02:54;;;;;;;;;0.00;0.00;;;;;;;;5002938;28;8785;-81
2021/11/14 14:05:23;;;;;;;;;0.00;0.00;;;;;;;;4986977;28;9784;-78
2021/11/14 14:07:48;;;;;;;;;0.00;0.00;;;;;;;;4997484;28;8785;-79
2021/11/14 14:10:14;;;;;;;;;0.00;0.00;;;;;;;;5008981;28;8825;-79
2021/11/14 14:12:47;;;;;;;;;0.00;0.00;;;;;;;;4973136;28;9746;-79
2021/11/14 14:15:14;;;;;;;;;0.00;0.00;;;;;;;;4976894;28;8796;-79
2021/11/14 14:17:40;;;;;;;;;0.00;0.00;;;;;;;;4984360;28;8778;-78
2021/11/14 14:20:07;;;;;;;;;0.00;0.00;;;;;;;;4975051;28;8922;-80
2021/11/14 14:22:37;;;;;;;;;0.00;0.00;;;;;;;;4977418;28;8776;-80
2021/11/14 14:25:04;;;;;;;;;0.00;0.00;;;;;;;;4966677;28;8834;-79
2021/11/14 14:27:29;;;;;;;;;0.00;0.00;;;;;;;;4985520;28;8798;-80
2021/11/14 14:29:58;;;;;;;;;0.00;0.00;;;;;;;;4983179;28;8882;-79
2021/11/14 14:32:25;;;;;;;;;0.00;0.00;;;;;;;;4990798;28;8798;-80
2021/11/14 14:34:51;;;;;;;;;0.00;0.00;;;;;;;;4967442;28;8843;-79
2021/11/14 14:37:17;;;;;;;;;0.00;0.00;;;;;;;;4989539;28;8792;-80
2021/11/14 14:39:46;;;;;;;;;0.00;0.00;;;;;;;;4987167;28;8832;-79
2021/11/14 14:42:11;;;;;;;;;0.00;0.00;;;;;;;;4978226;28;9198;-79
2021/11/14 14:44:37;;;;;;;;;0.00;0.00;;;;;;;;4982516;28;8848;-79
2021/11/14 14:47:02;;;;;;;;;0.00;0.00;;;;;;;;4958230;28;8849;-79
2021/11/14 14:49:31;;;;;;;;;0.00;0.00;;;;;;;;4976493;28;8848;-79
2021/11/14 14:52:00;;;;;;;;;0.00;0.00;;;;;;;;4981990;28;8918;-79
2021/11/14 14:54:27;;;;;;;;;0.00;0.00;;;;;;;;4976738;28;8804;-79
2021/11/14 14:56:57;;;;;;;;;0.00;0.00;;;;;;;;4976304;28;8796;-78
2021/11/14 14:59:23;;;;;;;;;0.00;0.00;;;;;;;;4958985;28;8981;-79
2021/11/14 15:01:52;;;;;;;;;0.00;0.00;;;;;;;;4976263;28;8772;-79
2021/11/14 15:04:19;;;;;;;;;0.00;0.00;;;;;;;;4988984;28;8802;-79
2021/11/14 15:06:46;;;;;;;;;0.00;0.00;;;;;;;;4976008;28;8828;-79
2021/11/14 15:09:19;;;;;;;;;0.00;0.00;;;;;;;;4966374;28;8981;-79
2021/11/14 15:11:45;;;;;;;;;0.00;0.00;;;;;;;;4976322;28;8769;-79
2021/11/14 15:14:11;;;;;;;;;0.00;0.00;;;;;;;;4976005;28;9596;-80
2021/11/14 15:16:36;;;;;;;;;0.00;0.00;;;;;;;;4976356;28;8915;-79
2021/11/14 15:19:01;;;;;;;;;0.00;0.00;;;;;;;;4991279;28;8891;-79
2021/11/14 15:21:27;;;;;;;;;0.00;0.00;;;;;;;;4977773;28;8852;-79
2021/11/14 15:23:52;;;;;;;;;0.00;0.00;;;;;;;;4979968;28;8879;-79
2021/11/14 15:26:18;;;;;;;;;0.00;0.00;;;;;;;;4977583;28;9645;-79
2021/11/14 15:38:09;;;;;;;;;0.00;0.00;;;;;;;;4896876;29;8781;-79
2021/11/14 15:40:36;;;;;;;;;0.00;0.00;;;;;;;;4941267;28;9470;-79
2021/11/14 15:43:04;;;;;;;;;0.00;0.00;;;;;;;;4966856;28;8829;-81
2021/11/14 15:49:15;;;;;;;;;0.00;0.00;;;;;;;;4923196;29;8875;-79
2021/11/14 15:51:41;;;;;;;;;0.00;0.00;;;;;;;;4931048;28;8812;-79
2021/11/14 15:54:07;;;;;;;;;0.00;0.00;;;;;;;;4953813;28;8780;-78
2021/11/14 15:56:33;;;;;;;;;0.00;0.00;;;;;;;;4975240;28;8824;-78
2021/11/14 15:58:58;;;;;;;;;0.00;0.00;;;;;;;;4975867;28;8935;-79
2021/11/14 16:01:24;;;;;;;;;0.00;0.00;;;;;;;;4982694;28;8818;-79
2021/11/14 16:03:49;;;;;;;;;0.00;0.00;;;;;;;;4992755;28;8866;-79
2021/11/14 16:06:17;;;;;;;;;0.00;0.00;;;;;;;;4994281;28;8850;-80
2021/11/14 16:08:42;;;;;;;;;0.00;0.00;;;;;;;;4970538;28;8822;-79
2021/11/14 16:11:10;;;;;;;;;0.00;0.00;;;;;;;;4985145;28;8834;-80
2021/11/14 16:13:37;;;;;;;;;0.00;0.00;;;;;;;;4976625;28;8935;-80
2021/11/14 16:16:03;;;;;;;;;0.00;0.00;;;;;;;;5006976;28;8844;-79
2021/11/14 16:18:28;;;;;;;;;0.00;0.00;;;;;;;;4986787;28;8831;-79
2021/11/14 16:20:54;;;;;;;;;0.00;0.00;;;;;;;;5010583;28;8825;-79
2021/11/14 16:23:33;;;;;;;;;0.00;0.00;;;;;;;;5004041;28;9026;-81
2021/11/14 16:26:11;;;;;;;;;;;;;;;;;;;;;
2021/11/14 16:32:02;;;;;;;;;0.00;0.00;;;;;;;;4988024;28;8805;-81
2021/11/14 16:37:39;;;;;;;;;0.00;0.00;;;;;;;;4978932;28;8869;-81
2021/11/14 16:40:08;;;;;;;;;0.00;0.00;;;;;;;;5006387;28;8826;-81
2021/11/14 17:25:04;;;;;;;;;0.00;0.00;;;;;;;;4739018;30;8876;-81
2021/11/14 17:34:30;;;;;;;;;0.00;0.00;;;;;;;;4847783;29;8834;-82
2021/11/14 18:28:28;;;;;;;;;0.00;0.00;;;;;;;;4995383;28;8808;-82
2021/11/14 18:34:35;;;;;;;;;0.00;0.00;;;;;;;;4977168;28;8822;-82
2021/11/14 18:37:01;;;;;;;;;0.00;0.00;;;;;;;;4951321;28;8813;-81
2021/11/14 18:39:44;;;;;;;;;;;;;;;;;;;;;
2021/11/14 18:48:28;;;;;;;;;0.00;0.00;;;;;;;;4943769;28;9758;-82
2021/11/14 18:51:05;;;;;;;;;0.00;0.00;;;;;;;;4992104;28;8744;-82
2021/11/14 18:53:51;;;;;;;;;0.00;0.00;;;;;;;;4999682;28;8913;-82
2021/11/14 18:56:25;;;;;;;;;0.00;0.00;;;;;;;;4984321;28;8997;-82
2021/11/14 18:58:52;;;;;;;;;0.00;0.00;;;;;;;;4977864;28;9796;-83
2021/11/14 19:01:20;;;;;;;;;0.00;0.00;;;;;;;;4994586;28;9729;-83
2021/11/14 19:03:46;;;;;;;;;0.00;0.00;;;;;;;;4985538;28;8764;-82
2021/11/14 19:06:22;;;;;;;;;;;;;;;;;;;;;
2021/11/14 19:08:48;;;;;;;;;0.00;0.00;;;;;;;;4994374;28;37078;-82
2021/11/14 19:11:14;;;;;;;;;0.00;0.00;;;;;;;;4995256;28;8776;-82
2021/11/14 19:13:44;;;;;;;;;0.00;0.00;;;;;;;;4977763;28;8913;-82
2021/11/14 19:16:17;;;;;;;;;0.00;0.00;;;;;;;;4977156;28;8878;-82
2021/11/14 19:18:45;;;;;;;;;0.00;0.00;;;;;;;;4988008;28;8808;-82
2021/11/14 19:21:11;;;;;;;;;0.00;0.00;;;;;;;;4994517;28;8799;-82
2021/11/14 19:23:39;;;;;;;;;0.00;0.00;;;;;;;;4976633;28;8827;-82
2021/11/14 19:26:06;;;;;;;;;0.00;0.00;;;;;;;;4993187;28;8752;-82
2021/11/14 19:28:32;;;;;;;;;0.00;0.00;;;;;;;;4995386;28;8799;-82
2021/11/14 19:30:58;;;;;;;;;0.00;0.00;;;;;;;;4977133;28;8849;-82
2021/11/14 19:33:23;;;;;;;;;0.00;0.00;;;;;;;;4995011;28;8902;-82
2021/11/14 19:35:49;;;;;;;;;0.00;0.00;;;;;;;;4994272;28;8808;-82
2021/11/14 19:38:14;;;;;;;;;0.00;0.00;;;;;;;;4994398;28;8811;-82
2021/11/14 19:40:47;;;;;;;;;0.00;0.00;;;;;;;;5004603;28;9638;-82
2021/11/14 19:43:13;;;;;;;;;0.00;0.00;;;;;;;;4974300;28;8917;-82
2021/11/14 19:46:09;;;;;;;;;;;;;;;;;;;;;
2021/11/14 19:49:18;;;;;;;;;0.00;0.00;;;;;;;;4989448;28;35715;-82
2021/11/14 19:52:03;;;;;;;;;0.00;0.00;;;;;;;;4994066;28;9732;-80
2021/11/14 19:57:43;;;;;;;;;0.00;0.00;;;;;;;;4994380;28;8823;-82
2021/11/14 20:00:11;;;;;;;;;0.00;0.00;;;;;;;;4979361;28;8808;-82
2021/11/14 20:02:42;;;;;;;;;0.00;0.00;;;;;;;;4977457;28;8799;-82
2021/11/14 20:05:28;;;;;;;;;;;;;;;;;;;;;
2021/11/14 20:08:23;;;;;;;;;;;;;;;;;;;;;
2021/11/14 20:13:55;;;;;;;;;;;;;;;;;;;;;
2021/11/14 20:22:49;;;;;;;;;;;;;;;;;;;;;
2021/11/14 20:28:56;;;;;;;;;;;;;;;;;;;;;
2021/11/14 20:37:25;;;;;;;;;0.00;0.00;;;;;;;;4993887;28;8893;-82
2021/11/14 20:43:25;;;;;;;;;0.00;0.00;;;;;;;;4967585;28;8792;-82
2021/11/14 20:45:54;;;;;;;;;0.00;0.00;;;;;;;;4982478;28;8815;-82
2021/11/14 20:51:15;;;;;;;;;0.00;0.00;;;;;;;;4983129;28;8804;-81
2021/11/14 20:53:43;;;;;;;;;0.00;0.00;;;;;;;;4965258;28;8804;-81
2021/11/14 20:56:22;;;;;;;;;0.00;0.00;;;;;;;;4976400;28;8922;-82
2021/11/14 20:58:47;;;;;;;;;0.00;0.00;;;;;;;;4984878;28;8796;-81
2021/11/14 21:01:18;;;;;;;;;0.00;0.00;;;;;;;;4979443;28;8815;-81
2021/11/14 21:03:46;;;;;;;;;0.00;0.00;;;;;;;;4979306;28;8795;-81
2021/11/14 21:06:17;;;;;;;;;0.00;0.00;;;;;;;;4996209;28;8815;-82
2021/11/14 23:44:28;;;;;;;;;;;;;;;;;;;;;
2021/11/14 23:50:11;;;;;;;;;;;;;;;;;;;;;
2021/11/14 23:55:38;;;;;;;;;0.00;0.00;;;;;;;;4983198;28;8848;-81
2021/11/14 23:58:04;;;;;;;;;0.00;0.00;;;;;;;;4975455;28;9757;-81
